createdAt,value
2018-05-14T00:00:18.705Z,15.30
2018-05-14T00:01:22.981Z,15.30
2018-05-14T00:02:27.149Z,15.40
2018-05-14T00:03:31.322Z,15.30
2018-05-14T00:04:36.283Z,15.40
2018-05-14T00:05:40.461Z,15.40
2018-05-14T00:06:44.662Z,15.30
2018-05-14T00:07:49.629Z,15.30
2018-05-14T00:08:53.822Z,15.30
2018-05-14T00:09:58.006Z,15.30
2018-05-14T00:11:02.951Z,15.40
2018-05-14T00:12:07.898Z,15.30
2018-05-14T00:13:12.094Z,15.30
2018-05-14T00:14:16.282Z,15.40
2018-05-14T00:15:21.273Z,15.30
2018-05-14T00:16:25.465Z,15.30
2018-05-14T00:17:29.641Z,15.30
2018-05-14T00:18:33.826Z,15.30
2018-05-14T00:19:38.763Z,15.30
2018-05-14T00:20:42.966Z,15.30
2018-05-14T00:21:47.260Z,15.30
2018-05-14T00:22:51.449Z,15.20
2018-05-14T00:23:55.630Z,15.20
2018-05-14T00:25:00.040Z,15.20
2018-05-14T00:26:04.977Z,15.20
2018-05-14T00:27:09.153Z,15.20
2018-05-14T00:28:14.834Z,15.30
2018-05-14T00:29:19.011Z,15.20
2018-05-14T00:30:23.337Z,15.30
2018-05-14T00:31:28.281Z,15.20
2018-05-14T00:32:32.469Z,15.10
2018-05-14T00:33:37.433Z,15.10
2018-05-14T00:34:41.609Z,15.10
2018-05-14T00:35:46.573Z,15.10
2018-05-14T00:36:51.177Z,15.10
2018-05-14T00:37:55.379Z,15.10
2018-05-14T00:38:59.564Z,15.10
2018-05-14T00:40:03.740Z,15.10
2018-05-14T00:41:07.919Z,15.00
2018-05-14T00:42:12.117Z,15.10
2018-05-14T00:43:17.057Z,15.10
2018-05-14T00:44:21.232Z,15.10
2018-05-14T00:45:25.405Z,15.00
2018-05-14T00:46:29.598Z,15.00
2018-05-14T00:47:34.088Z,15.10
2018-05-14T00:48:39.033Z,15.10
2018-05-14T00:49:43.227Z,15.10
2018-05-14T00:50:48.170Z,15.00
2018-05-14T00:51:52.341Z,15.00
2018-05-14T00:52:56.682Z,15.10
2018-05-14T00:54:01.621Z,14.90
2018-05-14T00:55:18.782Z,15.00
2018-05-14T00:56:22.952Z,15.00
2018-05-14T00:57:27.133Z,14.90
2018-05-14T00:58:32.111Z,14.90
2018-05-14T00:59:36.329Z,14.90
2018-05-14T01:00:40.509Z,15.00
2018-05-14T01:01:44.713Z,14.90
2018-05-14T01:02:49.650Z,15.00
2018-05-14T01:03:54.059Z,15.00
2018-05-14T01:04:58.233Z,15.10
2018-05-14T01:06:02.470Z,15.10
2018-05-14T01:07:06.668Z,15.10
2018-05-14T01:08:11.670Z,15.10
2018-05-14T01:09:15.849Z,15.10
2018-05-14T01:10:20.056Z,15.10
2018-05-14T01:11:24.229Z,15.10
2018-05-14T01:12:29.177Z,15.10
2018-05-14T01:13:33.373Z,15.10
2018-05-14T01:14:38.440Z,15.10
2018-05-14T01:15:42.617Z,15.10
2018-05-14T01:16:47.553Z,15.00
2018-05-14T01:17:52.489Z,15.00
2018-05-14T01:18:56.660Z,15.00
2018-05-14T01:20:02.432Z,14.90
2018-05-14T01:21:06.604Z,14.90
2018-05-14T01:22:10.784Z,15.00
2018-05-14T01:23:14.957Z,15.00
2018-05-14T01:24:19.902Z,15.10
2018-05-14T01:25:24.092Z,15.10
2018-05-14T01:26:29.046Z,15.10
2018-05-14T01:27:33.250Z,15.10
2018-05-14T01:28:37.430Z,15.00
2018-05-14T01:29:42.378Z,15.10
2018-05-14T01:30:46.570Z,15.10
2018-05-14T01:31:51.518Z,15.20
2018-05-14T01:32:56.517Z,15.20
2018-05-14T01:34:00.694Z,15.20
2018-05-14T01:35:04.869Z,15.20
2018-05-14T01:36:09.824Z,15.10
2018-05-14T01:37:13.992Z,15.10
2018-05-14T01:38:18.237Z,15.10
2018-05-14T01:39:22.404Z,15.00
2018-05-14T01:40:27.345Z,15.10
2018-05-14T01:41:32.298Z,15.10
2018-05-14T01:42:36.469Z,15.10
2018-05-14T01:43:40.706Z,15.10
2018-05-14T01:44:45.648Z,15.10
2018-05-14T01:45:49.818Z,15.10
2018-05-14T01:46:54.047Z,15.00
2018-05-14T01:47:58.989Z,15.00
2018-05-14T01:49:03.204Z,15.00
2018-05-14T01:50:07.372Z,15.10
2018-05-14T01:51:13.055Z,15.10
2018-05-14T01:52:17.247Z,15.10
2018-05-14T01:53:22.199Z,15.10
2018-05-14T01:54:26.584Z,15.10
2018-05-14T01:55:31.524Z,15.00
2018-05-14T01:56:36.475Z,15.10
2018-05-14T01:57:40.648Z,15.10
2018-05-14T01:58:45.596Z,15.10
2018-05-14T01:59:50.590Z,15.10
2018-05-14T02:00:56.269Z,15.10
2018-05-14T02:02:00.454Z,15.10
2018-05-14T02:03:05.007Z,15.00
2018-05-14T02:04:09.189Z,15.00
2018-05-14T02:05:14.182Z,15.00
2018-05-14T02:06:18.370Z,15.00
2018-05-14T02:07:22.540Z,15.00
2018-05-14T02:08:27.480Z,15.10
2018-05-14T02:09:32.421Z,15.00
2018-05-14T02:10:36.797Z,15.00
2018-05-14T02:11:40.968Z,15.00
2018-05-14T02:12:45.151Z,15.00
2018-05-14T02:13:49.330Z,15.00
2018-05-14T02:14:55.101Z,14.90
2018-05-14T02:16:00.066Z,14.90
2018-05-14T02:17:04.250Z,14.90
2018-05-14T02:18:08.429Z,15.00
2018-05-14T02:19:13.385Z,15.00
2018-05-14T02:20:17.561Z,15.00
2018-05-14T02:21:21.813Z,15.00
2018-05-14T02:22:25.987Z,15.00
2018-05-14T02:23:30.165Z,15.00
2018-05-14T02:24:34.350Z,15.00
2018-05-14T02:25:38.521Z,15.00
2018-05-14T02:26:42.755Z,14.90
2018-05-14T02:27:46.937Z,14.90
2018-05-14T02:28:51.109Z,14.90
2018-05-14T02:29:55.289Z,14.90
2018-05-14T02:30:59.499Z,14.90
2018-05-14T02:32:04.214Z,14.90
2018-05-14T02:33:08.469Z,14.90
2018-05-14T02:34:12.645Z,15.00
2018-05-14T02:35:16.821Z,15.00
2018-05-14T02:36:21.760Z,15.00
2018-05-14T02:37:26.734Z,15.00
2018-05-14T02:38:30.949Z,15.00
2018-05-14T02:39:35.166Z,15.00
2018-05-14T02:40:39.362Z,15.00
2018-05-14T02:41:43.549Z,15.00
2018-05-14T02:42:47.728Z,15.00
2018-05-14T02:43:52.697Z,15.00
2018-05-14T02:44:56.869Z,15.00
2018-05-14T02:46:01.310Z,15.00
2018-05-14T02:47:05.490Z,15.00
2018-05-14T02:48:09.665Z,15.00
2018-05-14T02:49:14.785Z,15.00
2018-05-14T02:50:18.969Z,15.00
2018-05-14T02:51:23.182Z,14.90
2018-05-14T02:52:27.374Z,14.90
2018-05-14T02:53:32.333Z,15.00
2018-05-14T02:54:36.513Z,15.00
2018-05-14T02:55:41.453Z,15.00
2018-05-14T02:56:46.465Z,14.90
2018-05-14T02:57:50.632Z,14.90
2018-05-14T02:58:54.818Z,14.90
2018-05-14T02:59:58.991Z,15.00
2018-05-14T03:01:04.697Z,15.00
2018-05-14T03:02:08.887Z,14.90
2018-05-14T03:03:13.068Z,15.00
2018-05-14T03:04:18.021Z,14.90
2018-05-14T03:05:22.202Z,14.90
2018-05-14T03:06:27.137Z,15.00
2018-05-14T03:07:32.105Z,14.90
2018-05-14T03:08:36.291Z,14.90
2018-05-14T03:09:40.567Z,14.90
2018-05-14T03:10:44.706Z,14.90
2018-05-14T03:11:48.966Z,14.90
2018-05-14T03:12:53.153Z,14.90
2018-05-14T03:13:57.329Z,14.90
2018-05-14T03:15:01.530Z,14.90
2018-05-14T03:16:06.529Z,14.90
2018-05-14T03:17:10.881Z,14.90
2018-05-14T03:18:15.821Z,15.00
2018-05-14T03:19:19.999Z,14.90
2018-05-14T03:20:25.677Z,14.90
2018-05-14T03:21:29.863Z,14.90
2018-05-14T03:22:34.189Z,14.90
2018-05-14T03:23:39.126Z,14.90
2018-05-14T03:24:44.064Z,14.90
2018-05-14T03:25:48.246Z,14.90
2018-05-14T03:26:52.421Z,14.90
2018-05-14T03:27:56.656Z,14.90
2018-05-14T03:29:02.346Z,14.90
2018-05-14T03:30:06.541Z,14.90
2018-05-14T03:31:11.486Z,14.90
2018-05-14T03:32:15.666Z,14.90
2018-05-14T03:33:20.635Z,15.00
2018-05-14T03:34:24.804Z,14.90
2018-05-14T03:35:29.758Z,15.00
2018-05-14T03:36:34.353Z,14.90
2018-05-14T03:37:39.299Z,14.90
2018-05-14T03:38:43.473Z,14.90
2018-05-14T03:39:47.649Z,14.80
2018-05-14T03:40:51.821Z,14.80
2018-05-14T03:41:56.017Z,14.80
2018-05-14T03:43:00.978Z,14.80
2018-05-14T03:44:05.149Z,14.80
2018-05-14T03:45:10.150Z,14.90
2018-05-14T03:46:14.345Z,14.90
2018-05-14T03:47:18.519Z,14.90
2018-05-14T03:48:23.474Z,14.90
2018-05-14T03:49:27.681Z,14.80
2018-05-14T03:50:32.478Z,14.80
2018-05-14T03:51:36.665Z,14.80
2018-05-14T03:52:41.605Z,14.90
2018-05-14T03:53:46.545Z,14.90
2018-05-14T03:54:51.485Z,14.90
2018-05-14T03:55:55.694Z,14.80
2018-05-14T03:56:59.933Z,14.90
2018-05-14T03:58:04.120Z,14.80
2018-05-14T03:59:26.080Z,14.90
2018-05-14T04:00:47.983Z,14.80
2018-05-14T04:02:21.721Z,14.80
2018-05-14T04:03:43.912Z,14.80
2018-05-14T04:05:05.969Z,14.70
2018-05-14T04:06:27.862Z,14.70
2018-05-14T04:07:32.265Z,14.70
2018-05-14T04:08:37.205Z,14.60
2018-05-14T04:09:41.377Z,14.60
2018-05-14T04:10:45.557Z,14.70
2018-05-14T04:11:49.738Z,14.70
2018-05-14T04:12:53.998Z,14.60
2018-05-14T04:13:58.187Z,14.60
2018-05-14T04:15:02.368Z,14.60
2018-05-14T04:16:07.437Z,14.60
2018-05-14T04:17:11.620Z,14.60
2018-05-14T04:18:15.849Z,14.60
2018-05-14T04:19:20.033Z,14.60
2018-05-14T04:20:24.205Z,14.60
2018-05-14T04:21:28.393Z,14.60
2018-05-14T04:22:32.561Z,14.60
2018-05-14T04:23:36.778Z,14.50
2018-05-14T04:24:40.972Z,14.60
2018-05-14T04:25:45.924Z,14.50
2018-05-14T04:26:50.125Z,14.50
2018-05-14T04:27:54.293Z,14.50
2018-05-14T04:28:58.522Z,14.50
2018-05-14T04:30:03.462Z,14.60
2018-05-14T04:31:08.397Z,14.50
2018-05-14T04:32:13.354Z,14.60
2018-05-14T04:33:17.535Z,14.60
2018-05-14T04:34:21.754Z,14.60
2018-05-14T04:35:25.933Z,14.60
2018-05-14T04:36:30.111Z,14.60
2018-05-14T04:37:34.302Z,14.50
2018-05-14T04:38:38.483Z,14.50
2018-05-14T04:39:43.429Z,14.60
2018-05-14T04:40:47.617Z,14.50
2018-05-14T04:41:52.954Z,14.70
2018-05-14T04:42:57.890Z,14.80
2018-05-14T04:44:02.061Z,14.80
2018-05-14T04:45:06.233Z,14.80
2018-05-14T04:46:10.425Z,14.80
2018-05-14T04:47:14.644Z,14.80
2018-05-14T04:48:18.824Z,14.70
2018-05-14T04:49:23.770Z,14.80
2018-05-14T04:50:27.941Z,14.80
2018-05-14T04:51:32.108Z,14.80
2018-05-14T04:52:37.250Z,14.80
2018-05-14T04:53:41.436Z,14.80
2018-05-14T04:54:45.605Z,14.80
2018-05-14T04:55:49.777Z,14.70
2018-05-14T04:56:53.976Z,14.70
2018-05-14T04:57:58.153Z,14.70
2018-05-14T04:59:03.517Z,14.60
2018-05-14T05:00:07.737Z,14.60
2018-05-14T05:01:11.909Z,14.50
2018-05-14T05:02:16.854Z,14.50
2018-05-14T05:03:21.034Z,14.50
2018-05-14T05:04:25.243Z,14.40
2018-05-14T05:05:29.491Z,14.40
2018-05-14T05:06:33.685Z,14.40
2018-05-14T05:07:38.618Z,14.40
2018-05-14T05:08:43.763Z,14.40
2018-05-14T05:09:47.939Z,14.40
2018-05-14T05:10:52.182Z,14.40
2018-05-14T05:11:56.360Z,14.40
2018-05-14T05:13:00.533Z,14.40
2018-05-14T05:14:04.905Z,14.40
2018-05-14T05:15:09.853Z,14.40
2018-05-14T05:16:14.025Z,14.40
2018-05-14T05:17:18.213Z,14.50
2018-05-14T05:18:22.394Z,14.50
2018-05-14T05:19:26.772Z,14.50
2018-05-14T05:20:31.721Z,14.50
2018-05-14T05:21:35.903Z,14.50
2018-05-14T05:22:40.072Z,14.50
2018-05-14T05:23:44.249Z,14.50
2018-05-14T05:24:48.449Z,14.50
2018-05-14T05:25:53.382Z,14.60
2018-05-14T05:26:57.698Z,14.60
2018-05-14T05:28:01.878Z,14.70
2018-05-14T05:29:06.063Z,14.80
2018-05-14T05:30:10.626Z,15.00
2018-05-14T05:31:15.591Z,15.20
2018-05-14T05:32:19.765Z,15.20
2018-05-14T05:33:24.711Z,15.40
2018-05-14T05:34:28.990Z,15.40
2018-05-14T05:35:33.119Z,15.40
2018-05-14T05:36:38.118Z,15.50
2018-05-14T05:37:42.319Z,15.50
2018-05-14T05:38:46.506Z,15.40
2018-05-14T05:39:50.745Z,15.40
2018-05-14T05:40:54.912Z,15.40
2018-05-14T05:41:59.114Z,15.20
2018-05-14T05:43:03.292Z,15.20
2018-05-14T05:44:07.476Z,15.10
2018-05-14T05:45:11.732Z,14.90
2018-05-14T05:46:15.864Z,14.80
2018-05-14T05:47:20.052Z,14.70
2018-05-14T05:48:25.004Z,14.60
2018-05-14T05:49:29.598Z,14.50
2018-05-14T05:50:34.593Z,14.60
2018-05-14T05:51:38.777Z,14.60
2018-05-14T05:52:43.056Z,14.60
2018-05-14T05:53:47.233Z,14.70
2018-05-14T05:54:52.950Z,14.90
2018-05-14T05:55:57.198Z,14.90
2018-05-14T05:57:01.368Z,15.00
2018-05-14T05:58:05.555Z,15.10
2018-05-14T05:59:09.733Z,15.20
2018-05-14T06:00:14.668Z,15.50
2018-05-14T06:01:19.819Z,15.60
2018-05-14T06:02:23.994Z,15.60
2018-05-14T06:03:28.164Z,15.80
2018-05-14T06:04:32.470Z,15.90
2018-05-14T06:05:36.644Z,16.00
2018-05-14T06:06:41.717Z,16.00
2018-05-14T06:07:45.885Z,15.90
2018-05-14T06:08:50.824Z,15.80
2018-05-14T06:09:55.016Z,15.70
2018-05-14T06:10:59.958Z,15.70
2018-05-14T06:12:04.574Z,15.70
2018-05-14T06:13:09.513Z,15.60
2018-05-14T06:14:13.681Z,15.60
2018-05-14T06:15:19.366Z,15.70
2018-05-14T06:16:23.537Z,15.70
2018-05-14T06:17:28.552Z,15.80
2018-05-14T06:18:32.729Z,15.80
2018-05-14T06:19:36.913Z,15.90
2018-05-14T06:20:41.854Z,15.90
2018-05-14T06:21:46.260Z,16.00
2018-05-14T06:22:51.230Z,16.00
2018-05-14T06:23:58.261Z,16.00
2018-05-14T06:25:03.199Z,16.10
2018-05-14T06:26:08.205Z,16.10
2018-05-14T06:27:12.381Z,16.00
2018-05-14T06:28:16.583Z,16.00
2018-05-14T06:29:20.758Z,16.00
2018-05-14T06:30:24.952Z,15.90
2018-05-14T06:31:29.888Z,15.90
2018-05-14T06:32:34.830Z,15.90
2018-05-14T06:33:39.428Z,15.90
2018-05-14T06:34:44.366Z,15.90
2018-05-14T06:35:49.364Z,15.90
2018-05-14T06:36:53.514Z,15.80
2018-05-14T06:37:57.705Z,15.90
2018-05-14T06:39:02.669Z,15.90
2018-05-14T06:40:06.852Z,16.00
2018-05-14T06:41:11.855Z,16.10
2018-05-14T06:42:17.635Z,16.10
2018-05-14T06:43:22.241Z,16.10
2018-05-14T06:44:27.217Z,16.20
2018-05-14T06:45:31.365Z,16.20
2018-05-14T06:46:35.538Z,16.20
2018-05-14T06:47:39.704Z,16.30
2018-05-14T06:48:44.699Z,16.40
2018-05-14T06:49:48.869Z,16.30
2018-05-14T06:50:53.037Z,16.30
2018-05-14T06:51:57.213Z,16.40
2018-05-14T06:53:01.485Z,16.40
2018-05-14T06:54:05.680Z,16.40
2018-05-14T06:55:10.640Z,16.50
2018-05-14T06:56:14.796Z,16.50
2018-05-14T06:57:20.526Z,16.50
2018-05-14T06:58:24.669Z,16.60
2018-05-14T06:59:29.625Z,16.70
2018-05-14T07:00:34.016Z,16.70
2018-05-14T07:01:37.992Z,16.80
2018-05-14T07:02:42.185Z,16.90
2018-05-14T07:03:46.381Z,16.90
2018-05-14T07:04:50.548Z,17.00
2018-05-14T07:05:55.681Z,17.00
2018-05-14T07:07:00.622Z,17.10
2018-05-14T07:08:05.557Z,17.20
2018-05-14T07:09:09.728Z,17.20
2018-05-14T07:10:15.405Z,17.30
2018-05-14T07:11:20.367Z,17.30
2018-05-14T07:12:24.732Z,17.30
2018-05-14T07:13:29.669Z,17.30
2018-05-14T07:14:34.600Z,17.40
2018-05-14T07:15:39.638Z,17.40
2018-05-14T07:16:43.828Z,17.40
2018-05-14T07:17:49.173Z,17.50
2018-05-14T07:18:54.116Z,17.60
2018-05-14T07:19:58.289Z,17.60
2018-05-14T07:21:03.973Z,17.70
2018-05-14T07:22:08.150Z,17.70
2018-05-14T07:23:13.863Z,17.70
2018-05-14T07:24:18.052Z,17.70
2018-05-14T07:25:22.277Z,17.70
2018-05-14T07:26:26.449Z,17.70
2018-05-14T07:27:31.396Z,17.90
2018-05-14T07:28:35.569Z,17.80
2018-05-14T07:29:39.750Z,17.90
2018-05-14T07:30:43.952Z,18.00
2018-05-14T07:31:48.122Z,18.00
2018-05-14T07:32:52.298Z,18.00
2018-05-14T07:33:56.474Z,17.90
2018-05-14T07:35:00.776Z,18.00
2018-05-14T07:36:04.957Z,17.90
2018-05-14T07:37:09.894Z,17.90
2018-05-14T07:38:14.068Z,17.90
2018-05-14T07:39:19.758Z,17.90
2018-05-14T07:40:24.432Z,17.90
2018-05-14T07:41:28.552Z,18.00
2018-05-14T07:42:32.725Z,18.00
2018-05-14T07:43:36.902Z,18.10
2018-05-14T07:44:41.069Z,18.10
2018-05-14T07:45:45.412Z,18.20
2018-05-14T07:46:50.351Z,18.30
2018-05-14T07:47:54.527Z,18.20
2018-05-14T07:48:59.463Z,18.30
2018-05-14T07:50:04.726Z,18.30
2018-05-14T07:51:08.953Z,18.40
2018-05-14T07:52:13.130Z,18.30
2018-05-14T07:53:18.097Z,18.40
2018-05-14T07:54:22.323Z,18.40
2018-05-14T07:55:26.456Z,18.40
2018-05-14T07:56:30.928Z,18.40
2018-05-14T07:57:34.906Z,18.40
2018-05-14T07:58:39.897Z,18.50
2018-05-14T07:59:44.078Z,18.50
2018-05-14T08:00:48.262Z,18.50
2018-05-14T08:01:52.428Z,18.50
2018-05-14T08:02:58.143Z,18.50
2018-05-14T08:04:02.542Z,18.50
2018-05-14T08:05:06.713Z,18.60
2018-05-14T08:06:10.913Z,18.60
2018-05-14T08:07:15.094Z,18.60
2018-05-14T08:08:19.271Z,18.60
2018-05-14T08:09:24.246Z,18.80
2018-05-14T08:10:28.469Z,18.80
2018-05-14T08:11:33.405Z,19.00
2018-05-14T08:12:37.595Z,19.00
2018-05-14T08:13:41.761Z,19.00
2018-05-14T08:14:45.929Z,19.10
2018-05-14T08:15:50.246Z,19.10
2018-05-14T08:16:54.413Z,19.10
2018-05-14T08:17:58.580Z,19.10
2018-05-14T08:19:03.520Z,19.00
2018-05-14T08:20:08.465Z,19.10
2018-05-14T08:21:12.697Z,19.10
2018-05-14T08:22:16.864Z,19.10
2018-05-14T08:23:21.993Z,19.10
2018-05-14T08:24:25.994Z,19.10
2018-05-14T08:25:30.169Z,19.10
2018-05-14T08:26:34.524Z,19.20
2018-05-14T08:27:39.461Z,19.20
2018-05-14T08:28:44.402Z,19.20
2018-05-14T08:29:48.586Z,19.10
2018-05-14T08:30:53.524Z,19.10
2018-05-14T08:31:58.517Z,19.20
2018-05-14T08:33:02.688Z,19.20
2018-05-14T08:34:06.860Z,19.30
2018-05-14T08:35:11.025Z,19.30
2018-05-14T08:36:15.201Z,19.40
2018-05-14T08:37:20.343Z,19.50
2018-05-14T08:38:24.512Z,19.50
2018-05-14T08:39:28.680Z,19.60
2018-05-14T08:40:32.848Z,19.70
2018-05-14T08:41:37.790Z,19.70
2018-05-14T08:42:41.996Z,19.70
2018-05-14T08:43:46.946Z,19.70
2018-05-14T08:44:51.257Z,19.70
2018-05-14T08:45:55.442Z,19.80
2018-05-14T08:47:00.373Z,19.80
2018-05-14T08:48:05.402Z,19.90
2018-05-14T08:49:09.521Z,19.90
2018-05-14T08:50:13.909Z,20.00
2018-05-14T08:51:18.091Z,20.00
2018-05-14T08:52:22.270Z,20.00
2018-05-14T08:53:26.437Z,20.10
2018-05-14T08:54:30.645Z,20.10
2018-05-14T08:55:34.980Z,20.20
2018-05-14T08:56:39.934Z,20.20
2018-05-14T08:57:44.149Z,20.20
2018-05-14T08:58:48.325Z,20.20
2018-05-14T08:59:53.256Z,20.20
2018-05-14T09:00:58.226Z,20.20
2018-05-14T09:02:02.426Z,20.20
2018-05-14T09:03:06.615Z,20.20
2018-05-14T09:04:10.789Z,20.20
2018-05-14T09:05:14.970Z,20.20
2018-05-14T09:06:19.329Z,20.20
2018-05-14T09:07:24.282Z,20.30
2018-05-14T09:08:28.458Z,20.30
2018-05-14T09:09:32.629Z,20.30
2018-05-14T09:10:36.797Z,20.30
2018-05-14T09:11:41.781Z,20.30
2018-05-14T09:12:45.988Z,20.20
2018-05-14T09:13:50.160Z,20.30
2018-05-14T09:14:54.358Z,20.40
2018-05-14T09:15:59.302Z,20.50
2018-05-14T09:17:03.612Z,20.50
2018-05-14T09:18:07.792Z,20.60
2018-05-14T09:19:11.971Z,20.60
2018-05-14T09:20:16.145Z,20.70
2018-05-14T09:21:20.313Z,20.70
2018-05-14T09:22:24.546Z,20.80
2018-05-14T09:23:29.483Z,20.90
2018-05-14T09:24:33.925Z,20.90
2018-05-14T09:25:38.102Z,20.90
2018-05-14T09:26:43.057Z,20.90
2018-05-14T09:27:47.261Z,20.90
2018-05-14T09:28:51.658Z,20.90
2018-05-14T09:29:56.592Z,21.00
2018-05-14T09:31:00.761Z,21.00
2018-05-14T09:32:04.933Z,21.10
2018-05-14T09:33:09.100Z,21.20
2018-05-14T09:34:14.102Z,21.40
2018-05-14T09:35:18.277Z,21.40
2018-05-14T09:36:22.449Z,21.40
2018-05-14T09:37:27.389Z,21.60
2018-05-14T09:38:32.312Z,21.60
2018-05-14T09:39:36.937Z,21.50
2018-05-14T09:40:41.889Z,21.60
2018-05-14T09:41:46.069Z,21.60
2018-05-14T09:42:51.003Z,21.70
2018-05-14T09:43:55.200Z,21.70
2018-05-14T09:45:00.175Z,21.70
2018-05-14T09:46:04.425Z,21.60
2018-05-14T09:47:10.098Z,21.60
2018-05-14T09:48:15.034Z,21.50
2018-05-14T09:49:19.251Z,21.50
2018-05-14T09:50:24.225Z,21.70
2018-05-14T09:51:28.401Z,21.60
2018-05-14T09:52:32.667Z,21.70
2018-05-14T09:53:36.869Z,21.70
2018-05-14T09:54:41.045Z,21.80
2018-05-14T09:55:45.212Z,21.80
2018-05-14T09:56:50.144Z,21.90
2018-05-14T09:57:55.274Z,21.90
2018-05-14T09:59:00.222Z,21.80
2018-05-14T10:00:04.426Z,21.80
2018-05-14T10:01:08.611Z,21.90
2018-05-14T10:02:12.797Z,21.90
2018-05-14T10:03:17.016Z,21.90
2018-05-14T10:04:21.199Z,22.00
2018-05-14T10:05:25.388Z,22.20
2018-05-14T10:06:29.561Z,22.30
2018-05-14T10:07:34.522Z,22.30
2018-05-14T10:08:38.921Z,22.30
2018-05-14T10:09:43.865Z,22.50
2018-05-14T10:10:48.028Z,22.50
2018-05-14T10:11:52.205Z,22.60
2018-05-14T10:12:56.468Z,22.70
2018-05-14T10:14:00.601Z,22.60
2018-05-14T10:15:04.787Z,22.60
2018-05-14T10:16:09.716Z,22.50
2018-05-14T10:17:14.681Z,22.50
2018-05-14T10:18:18.928Z,22.40
2018-05-14T10:19:23.105Z,22.40
2018-05-14T10:20:27.282Z,22.50
2018-05-14T10:21:32.217Z,22.50
2018-05-14T10:22:36.387Z,22.50
2018-05-14T10:23:42.199Z,22.50
2018-05-14T10:24:46.425Z,22.50
2018-05-14T10:25:50.788Z,22.60
2018-05-14T10:26:54.813Z,22.70
2018-05-14T10:27:58.980Z,22.80
2018-05-14T10:29:04.677Z,22.90
2018-05-14T10:30:08.869Z,22.90
2018-05-14T10:31:13.813Z,23.00
2018-05-14T10:32:17.989Z,23.00
2018-05-14T10:33:22.162Z,23.10
2018-05-14T10:34:26.337Z,23.10
2018-05-14T10:35:31.007Z,23.10
2018-05-14T10:36:36.706Z,23.20
2018-05-14T10:37:40.888Z,23.20
2018-05-14T10:38:45.071Z,23.30
2018-05-14T10:39:49.276Z,23.30
2018-05-14T10:40:53.478Z,23.30
2018-05-14T10:41:57.684Z,23.30
2018-05-14T10:43:01.889Z,23.30
2018-05-14T10:44:06.064Z,23.40
2018-05-14T10:45:11.001Z,23.50
2018-05-14T10:46:15.219Z,23.50
2018-05-14T10:47:19.814Z,23.50
2018-05-14T10:48:24.748Z,23.60
2018-05-14T10:49:29.689Z,23.60
2018-05-14T10:50:33.861Z,23.60
2018-05-14T10:51:38.033Z,23.60
2018-05-14T10:52:42.491Z,23.80
2018-05-14T10:53:46.609Z,23.80
2018-05-14T10:54:50.780Z,23.80
2018-05-14T10:55:54.949Z,23.90
2018-05-14T10:56:59.201Z,24.00
2018-05-14T10:58:03.378Z,24.00
2018-05-14T10:59:07.764Z,24.00
2018-05-14T11:00:11.937Z,24.10
2018-05-14T11:01:16.150Z,24.20
2018-05-14T11:02:20.316Z,24.20
2018-05-14T11:03:24.493Z,24.10
2018-05-14T11:04:28.820Z,24.10
2018-05-14T11:05:33.766Z,24.10
2018-05-14T11:06:38.714Z,24.20
2018-05-14T11:07:42.885Z,24.10
2018-05-14T11:08:47.833Z,24.20
2018-05-14T11:09:52.789Z,24.20
2018-05-14T11:10:56.963Z,24.10
2018-05-14T11:12:01.918Z,24.20
2018-05-14T11:13:06.110Z,24.20
2018-05-14T11:14:11.050Z,24.30
2018-05-14T11:15:15.230Z,24.20
2018-05-14T11:16:20.174Z,24.20
2018-05-14T11:17:24.374Z,24.20
2018-05-14T11:18:29.306Z,24.10
2018-05-14T11:19:33.538Z,24.10
2018-05-14T11:20:37.728Z,24.20
2018-05-14T11:21:42.678Z,24.20
2018-05-14T11:22:46.849Z,24.10
2018-05-14T11:23:51.016Z,24.10
2018-05-14T11:24:55.380Z,24.30
2018-05-14T11:26:00.311Z,24.40
2018-05-14T11:27:05.258Z,24.30
2018-05-14T11:28:09.507Z,24.30
2018-05-14T11:29:14.386Z,24.40
2018-05-14T11:30:19.376Z,24.40
2018-05-14T11:31:23.550Z,24.40
2018-05-14T11:32:27.825Z,24.50
2018-05-14T11:33:32.756Z,24.60
2018-05-14T11:34:37.693Z,24.70
2018-05-14T11:35:42.825Z,24.80
2018-05-14T11:36:47.754Z,24.90
2018-05-14T11:37:52.688Z,24.90
2018-05-14T11:38:56.859Z,24.90
2018-05-14T11:40:01.106Z,24.90
2018-05-14T11:41:05.318Z,24.90
2018-05-14T11:42:10.250Z,25.00
2018-05-14T11:43:14.421Z,24.90
2018-05-14T11:44:18.590Z,24.90
2018-05-14T11:45:22.758Z,24.90
2018-05-14T11:46:27.850Z,25.00
2018-05-14T11:47:32.017Z,25.00
2018-05-14T11:48:36.176Z,25.00
2018-05-14T11:49:40.354Z,25.00
2018-05-14T11:50:44.557Z,25.10
2018-05-14T11:51:48.744Z,25.20
2018-05-14T11:52:53.683Z,25.20
2018-05-14T11:53:57.845Z,25.20
2018-05-14T11:55:02.018Z,25.30
2018-05-14T11:56:06.181Z,25.30
2018-05-14T11:57:10.712Z,25.40
2018-05-14T11:58:15.641Z,25.40
2018-05-14T11:59:20.568Z,25.40
2018-05-14T12:00:25.497Z,25.40
2018-05-14T12:01:30.436Z,25.40
2018-05-14T12:02:35.378Z,25.50
2018-05-14T12:03:39.555Z,25.50
2018-05-14T12:04:43.730Z,25.60
2018-05-14T12:05:48.298Z,25.60
2018-05-14T12:06:53.234Z,25.70
2018-05-14T12:07:58.184Z,25.70
2018-05-14T12:09:02.370Z,25.60
2018-05-14T12:10:07.400Z,25.70
2018-05-14T12:11:11.599Z,25.70
2018-05-14T12:12:16.566Z,25.80
2018-05-14T12:13:20.735Z,25.70
2018-05-14T12:14:25.660Z,25.60
2018-05-14T12:15:29.850Z,25.60
2018-05-14T12:16:34.040Z,25.60
2018-05-14T12:17:38.207Z,25.60
2018-05-14T12:18:43.135Z,25.60
2018-05-14T12:19:48.088Z,25.60
2018-05-14T12:20:52.256Z,25.60
2018-05-14T12:21:57.199Z,25.60
2018-05-14T12:23:01.366Z,25.60
2018-05-14T12:24:05.913Z,25.60
2018-05-14T12:25:10.845Z,25.70
2018-05-14T12:26:15.774Z,25.70
2018-05-14T12:27:20.705Z,25.80
2018-05-14T12:28:25.644Z,25.80
2018-05-14T12:29:29.834Z,25.80
2018-05-14T12:30:34.907Z,25.90
2018-05-14T12:31:39.079Z,25.80
2018-05-14T12:32:44.009Z,25.80
2018-05-14T12:33:48.973Z,25.80
2018-05-14T12:34:53.175Z,25.80
2018-05-14T12:35:57.397Z,25.80
2018-05-14T12:37:01.552Z,25.80
2018-05-14T12:38:05.716Z,25.90
2018-05-14T12:39:09.885Z,25.90
2018-05-14T12:40:14.910Z,26.00
2018-05-14T12:41:19.984Z,26.00
2018-05-14T12:42:24.155Z,26.00
2018-05-14T12:43:29.081Z,25.90
2018-05-14T12:44:34.017Z,25.90
2018-05-14T12:45:38.945Z,25.90
2018-05-14T12:46:44.377Z,25.90
2018-05-14T12:47:49.304Z,26.00
2018-05-14T12:48:54.236Z,26.00
2018-05-14T12:49:59.181Z,26.00
2018-05-14T12:51:03.352Z,26.00
2018-05-14T12:52:07.581Z,26.00
2018-05-14T12:53:12.509Z,26.00
2018-05-14T12:54:17.453Z,26.00
2018-05-14T12:55:21.618Z,26.00
2018-05-14T12:56:25.780Z,26.10
2018-05-14T12:57:30.014Z,26.00
2018-05-14T12:58:34.177Z,26.00
2018-05-14T12:59:39.128Z,26.20
2018-05-14T13:00:43.294Z,26.20
2018-05-14T13:01:47.456Z,26.30
2018-05-14T13:02:51.654Z,26.30
2018-05-14T13:03:55.908Z,26.30
2018-05-14T13:05:00.081Z,26.30
2018-05-14T13:06:04.277Z,26.30
2018-05-14T13:07:09.219Z,26.40
2018-05-14T13:08:13.418Z,26.40
2018-05-14T13:09:18.341Z,26.50
2018-05-14T13:10:23.264Z,26.50
2018-05-14T13:11:28.212Z,26.40
2018-05-14T13:12:32.382Z,26.40
2018-05-14T13:13:36.582Z,26.40
2018-05-14T13:14:40.754Z,26.40
2018-05-14T13:15:44.919Z,26.40
2018-05-14T13:16:49.108Z,26.40
2018-05-14T13:17:53.441Z,26.30
2018-05-14T13:18:58.387Z,26.30
2018-05-14T13:20:02.549Z,26.30
2018-05-14T13:21:06.735Z,26.30
2018-05-14T13:22:10.896Z,26.30
2018-05-14T13:23:15.210Z,26.30
2018-05-14T13:24:19.371Z,26.40
2018-05-14T13:25:23.563Z,26.40
2018-05-14T13:26:27.724Z,26.40
2018-05-14T13:27:31.884Z,26.50
2018-05-14T13:28:36.083Z,26.50
2018-05-14T13:29:41.025Z,26.40
2018-05-14T13:30:45.188Z,26.40
2018-05-14T13:31:49.353Z,26.40
2018-05-14T13:32:53.646Z,26.30
2018-05-14T13:33:57.808Z,26.30
2018-05-14T13:35:01.977Z,26.30
2018-05-14T13:36:06.149Z,26.30
2018-05-14T13:37:10.563Z,26.30
2018-05-14T13:38:14.876Z,26.30
2018-05-14T13:39:19.042Z,26.30
2018-05-14T13:40:23.204Z,26.30
2018-05-14T13:41:28.134Z,26.40
2018-05-14T13:42:33.060Z,26.40
2018-05-14T13:43:38.035Z,26.40
2018-05-14T13:44:42.373Z,26.40
2018-05-14T13:45:47.307Z,26.50
2018-05-14T13:46:51.501Z,26.60
2018-05-14T13:47:55.674Z,26.60
2018-05-14T13:48:59.874Z,26.60
2018-05-14T13:50:05.296Z,26.60
2018-05-14T13:51:10.246Z,26.70
2018-05-14T13:52:14.445Z,26.60